sensor_id;sensor_type;location;lat;lon;timestamp;P1;durP1;ratioP1;P2;durP2;ratioP2
55493;SDS011;41355;50.390;19.096;2022-07-06T00:01:35;47.33;;;23.30;;
55493;SDS011;41355;50.390;19.096;2022-07-06T00:04:01;43.95;;;22.08;;
55493;SDS011;41355;50.390;19.096;2022-07-06T00:06:27;45.92;;;22.08;;
55493;SDS011;41355;50.390;19.096;2022-07-06T00:08:54;48.70;;;22.98;;
55493;SDS011;41355;50.390;19.096;2022-07-06T00:11:19;47.17;;;22.30;;
55493;SDS011;41355;50.390;19.096;2022-07-06T00:13:46;47.03;;;21.33;;
55493;SDS011;41355;50.390;19.096;2022-07-06T00:16:12;38.67;;;19.95;;
55493;SDS011;41355;50.390;19.096;2022-07-06T00:18:38;37.40;;;19.17;;
55493;SDS011;41355;50.390;19.096;2022-07-06T00:21:04;42.33;;;19.67;;
55493;SDS011;41355;50.390;19.096;2022-07-06T00:23:30;44.20;;;21.15;;
55493;SDS011;41355;50.390;19.096;2022-07-06T00:25:56;43.35;;;21.75;;
55493;SDS011;41355;50.390;19.096;2022-07-06T00:28:22;39.70;;;20.27;;
55493;SDS011;41355;50.390;19.096;2022-07-06T00:30:48;37.90;;;19.05;;
55493;SDS011;41355;50.390;19.096;2022-07-06T00:33:14;41.08;;;20.58;;
55493;SDS011;41355;50.390;19.096;2022-07-06T00:35:40;45.88;;;21.98;;
55493;SDS011;41355;50.390;19.096;2022-07-06T00:38:06;42.40;;;20.80;;
55493;SDS011;41355;50.390;19.096;2022-07-06T00:40:32;42.15;;;21.33;;
55493;SDS011;41355;50.390;19.096;2022-07-06T00:42:58;44.75;;;22.20;;
55493;SDS011;41355;50.390;19.096;2022-07-06T00:45:24;46.10;;;23.00;;
55493;SDS011;41355;50.390;19.096;2022-07-06T00:47:51;44.15;;;23.55;;
55493;SDS011;41355;50.390;19.096;2022-07-06T00:50:17;46.22;;;23.92;;
55493;SDS011;41355;50.390;19.096;2022-07-06T00:52:46;42.10;;;24.00;;
55493;SDS011;41355;50.390;19.096;2022-07-06T00:55:13;52.33;;;24.38;;
55493;SDS011;41355;50.390;19.096;2022-07-06T00:57:39;45.78;;;24.48;;
55493;SDS011;41355;50.390;19.096;2022-07-06T01:00:07;43.75;;;24.90;;
55493;SDS011;41355;50.390;19.096;2022-07-06T01:02:33;46.47;;;24.98;;
55493;SDS011;41355;50.390;19.096;2022-07-06T01:05:00;42.28;;;24.45;;
55493;SDS011;41355;50.390;19.096;2022-07-06T01:07:26;44.83;;;25.52;;
55493;SDS011;41355;50.390;19.096;2022-07-06T01:09:52;43.70;;;24.60;;
55493;SDS011;41355;50.390;19.096;2022-07-06T01:12:18;47.90;;;26.52;;
55493;SDS011;41355;50.390;19.096;2022-07-06T01:14:45;49.45;;;26.00;;
55493;SDS011;41355;50.390;19.096;2022-07-06T01:17:11;44.15;;;25.92;;
55493;SDS011;41355;50.390;19.096;2022-07-06T01:19:39;44.88;;;26.23;;
55493;SDS011;41355;50.390;19.096;2022-07-06T01:22:05;43.83;;;25.45;;
55493;SDS011;41355;50.390;19.096;2022-07-06T01:24:31;48.08;;;26.88;;
55493;SDS011;41355;50.390;19.096;2022-07-06T01:26:57;49.10;;;26.48;;
55493;SDS011;41355;50.390;19.096;2022-07-06T01:29:23;47.08;;;25.38;;
55493;SDS011;41355;50.390;19.096;2022-07-06T01:31:49;46.08;;;26.13;;
55493;SDS011;41355;50.390;19.096;2022-07-06T01:34:16;46.33;;;26.95;;
55493;SDS011;41355;50.390;19.096;2022-07-06T01:36:42;46.72;;;27.63;;
55493;SDS011;41355;50.390;19.096;2022-07-06T01:39:09;47.08;;;26.42;;
55493;SDS011;41355;50.390;19.096;2022-07-06T01:41:35;44.05;;;26.58;;
55493;SDS011;41355;50.390;19.096;2022-07-06T01:44:01;45.92;;;26.52;;
55493;SDS011;41355;50.390;19.096;2022-07-06T01:46:27;40.17;;;25.33;;
55493;SDS011;41355;50.390;19.096;2022-07-06T01:48:53;45.85;;;25.27;;
55493;SDS011;41355;50.390;19.096;2022-07-06T01:51:19;42.47;;;24.13;;
55493;SDS011;41355;50.390;19.096;2022-07-06T01:53:46;42.13;;;24.45;;
55493;SDS011;41355;50.390;19.096;2022-07-06T01:56:12;40.75;;;22.20;;
55493;SDS011;41355;50.390;19.096;2022-07-06T01:58:38;36.55;;;21.77;;
55493;SDS011;41355;50.390;19.096;2022-07-06T02:01:08;36.22;;;21.77;;
55493;SDS011;41355;50.390;19.096;2022-07-06T02:03:34;35.22;;;21.40;;
55493;SDS011;41355;50.390;19.096;2022-07-06T02:06:00;33.20;;;21.25;;
55493;SDS011;41355;50.390;19.096;2022-07-06T02:08:26;37.35;;;22.08;;
55493;SDS011;41355;50.390;19.096;2022-07-06T02:10:52;37.95;;;22.13;;
55493;SDS011;41355;50.390;19.096;2022-07-06T02:13:18;32.75;;;20.40;;
55493;SDS011;41355;50.390;19.096;2022-07-06T02:15:44;38.10;;;21.15;;
55493;SDS011;41355;50.390;19.096;2022-07-06T02:18:10;37.20;;;21.00;;
55493;SDS011;41355;50.390;19.096;2022-07-06T02:20:36;36.00;;;21.63;;
55493;SDS011;41355;50.390;19.096;2022-07-06T02:23:02;30.58;;;19.48;;
55493;SDS011;41355;50.390;19.096;2022-07-06T02:25:28;35.47;;;21.27;;
55493;SDS011;41355;50.390;19.096;2022-07-06T02:27:54;36.17;;;21.52;;
55493;SDS011;41355;50.390;19.096;2022-07-06T02:30:20;34.42;;;20.27;;
55493;SDS011;41355;50.390;19.096;2022-07-06T02:32:46;34.17;;;19.65;;
55493;SDS011;41355;50.390;19.096;2022-07-06T02:35:12;34.20;;;19.67;;
55493;SDS011;41355;50.390;19.096;2022-07-06T02:37:38;35.75;;;20.67;;
55493;SDS011;41355;50.390;19.096;2022-07-06T02:40:05;33.03;;;19.05;;
55493;SDS011;41355;50.390;19.096;2022-07-06T02:42:31;32.50;;;19.70;;
55493;SDS011;41355;50.390;19.096;2022-07-06T02:44:57;35.08;;;20.20;;
55493;SDS011;41355;50.390;19.096;2022-07-06T02:47:23;35.67;;;20.00;;
55493;SDS011;41355;50.390;19.096;2022-07-06T02:49:51;38.00;;;20.63;;
55493;SDS011;41355;50.390;19.096;2022-07-06T02:52:17;32.13;;;18.98;;
55493;SDS011;41355;50.390;19.096;2022-07-06T02:54:43;34.60;;;19.70;;
55493;SDS011;41355;50.390;19.096;2022-07-06T02:57:09;31.02;;;19.67;;
55493;SDS011;41355;50.390;19.096;2022-07-06T02:59:35;31.00;;;18.70;;
55493;SDS011;41355;50.390;19.096;2022-07-06T03:02:03;33.55;;;18.02;;
55493;SDS011;41355;50.390;19.096;2022-07-06T03:04:29;33.22;;;18.77;;
55493;SDS011;41355;50.390;19.096;2022-07-06T03:06:55;29.63;;;18.48;;
55493;SDS011;41355;50.390;19.096;2022-07-06T03:09:21;30.52;;;17.67;;
55493;SDS011;41355;50.390;19.096;2022-07-06T03:11:47;31.60;;;18.27;;
55493;SDS011;41355;50.390;19.096;2022-07-06T03:14:12;29.02;;;16.75;;
55493;SDS011;41355;50.390;19.096;2022-07-06T03:16:38;28.10;;;16.90;;
55493;SDS011;41355;50.390;19.096;2022-07-06T03:19:04;30.65;;;17.15;;
55493;SDS011;41355;50.390;19.096;2022-07-06T03:21:31;29.50;;;17.63;;
55493;SDS011;41355;50.390;19.096;2022-07-06T03:23:57;30.38;;;17.60;;
55493;SDS011;41355;50.390;19.096;2022-07-06T03:26:23;27.08;;;16.90;;
55493;SDS011;41355;50.390;19.096;2022-07-06T03:28:49;34.65;;;19.13;;
55493;SDS011;41355;50.390;19.096;2022-07-06T03:31:15;29.92;;;17.38;;
55493;SDS011;41355;50.390;19.096;2022-07-06T03:33:41;32.85;;;18.00;;
55493;SDS011;41355;50.390;19.096;2022-07-06T03:36:06;29.65;;;17.77;;
55493;SDS011;41355;50.390;19.096;2022-07-06T03:38:33;29.52;;;18.70;;
55493;SDS011;41355;50.390;19.096;2022-07-06T03:40:59;32.90;;;18.52;;
55493;SDS011;41355;50.390;19.096;2022-07-06T03:43:25;34.13;;;18.83;;
55493;SDS011;41355;50.390;19.096;2022-07-06T03:45:51;33.20;;;17.65;;
55493;SDS011;41355;50.390;19.096;2022-07-06T03:48:17;29.75;;;17.98;;
55493;SDS011;41355;50.390;19.096;2022-07-06T03:50:43;31.20;;;17.58;;
55493;SDS011;41355;50.390;19.096;2022-07-06T03:53:09;29.25;;;16.88;;
55493;SDS011;41355;50.390;19.096;2022-07-06T03:55:35;31.17;;;17.80;;
55493;SDS011;41355;50.390;19.096;2022-07-06T03:58:01;30.70;;;17.15;;
55493;SDS011;41355;50.390;19.096;2022-07-06T04:00:27;32.83;;;17.02;;
55493;SDS011;41355;50.390;19.096;2022-07-06T04:02:53;34.63;;;17.83;;
55493;SDS011;41355;50.390;19.096;2022-07-06T04:05:19;31.42;;;17.55;;
55493;SDS011;41355;50.390;19.096;2022-07-06T04:07:46;34.08;;;18.35;;
55493;SDS011;41355;50.390;19.096;2022-07-06T04:10:13;30.88;;;16.60;;
55493;SDS011;41355;50.390;19.096;2022-07-06T04:12:39;30.17;;;16.50;;
55493;SDS011;41355;50.390;19.096;2022-07-06T04:15:06;28.58;;;16.55;;
55493;SDS011;41355;50.390;19.096;2022-07-06T04:17:32;27.83;;;16.00;;
55493;SDS011;41355;50.390;19.096;2022-07-06T04:20:16;29.98;;;16.17;;
55493;SDS011;41355;50.390;19.096;2022-07-06T04:22:42;28.75;;;15.82;;
55493;SDS011;41355;50.390;19.096;2022-07-06T04:25:08;29.95;;;15.65;;
55493;SDS011;41355;50.390;19.096;2022-07-06T04:27:34;28.63;;;16.23;;
55493;SDS011;41355;50.390;19.096;2022-07-06T04:30:01;26.88;;;16.77;;
55493;SDS011;41355;50.390;19.096;2022-07-06T04:32:27;25.10;;;14.82;;
55493;SDS011;41355;50.390;19.096;2022-07-06T04:34:53;25.42;;;15.00;;
55493;SDS011;41355;50.390;19.096;2022-07-06T04:37:19;25.90;;;15.63;;
55493;SDS011;41355;50.390;19.096;2022-07-06T04:39:45;26.95;;;15.10;;
55493;SDS011;41355;50.390;19.096;2022-07-06T04:42:11;24.05;;;15.30;;
55493;SDS011;41355;50.390;19.096;2022-07-06T04:44:36;24.88;;;14.85;;
55493;SDS011;41355;50.390;19.096;2022-07-06T04:47:02;27.85;;;16.33;;
55493;SDS011;41355;50.390;19.096;2022-07-06T04:49:29;25.48;;;16.00;;
55493;SDS011;41355;50.390;19.096;2022-07-06T04:51:55;29.25;;;17.60;;
55493;SDS011;41355;50.390;19.096;2022-07-06T04:54:20;24.98;;;15.95;;
55493;SDS011;41355;50.390;19.096;2022-07-06T04:56:47;31.08;;;16.80;;
55493;SDS011;41355;50.390;19.096;2022-07-06T04:59:13;34.95;;;18.27;;
55493;SDS011;41355;50.390;19.096;2022-07-06T05:01:39;28.65;;;16.77;;
55493;SDS011;41355;50.390;19.096;2022-07-06T05:04:05;25.75;;;14.65;;
55493;SDS011;41355;50.390;19.096;2022-07-06T05:06:31;26.50;;;15.15;;
55493;SDS011;41355;50.390;19.096;2022-07-06T05:08:57;33.30;;;17.05;;
55493;SDS011;41355;50.390;19.096;2022-07-06T05:11:26;33.28;;;17.00;;
55493;SDS011;41355;50.390;19.096;2022-07-06T05:13:53;36.08;;;19.98;;
55493;SDS011;41355;50.390;19.096;2022-07-06T05:16:19;35.92;;;19.08;;
55493;SDS011;41355;50.390;19.096;2022-07-06T05:18:45;26.52;;;15.93;;
55493;SDS011;41355;50.390;19.096;2022-07-06T05:21:11;23.42;;;14.07;;
55493;SDS011;41355;50.390;19.096;2022-07-06T05:23:37;23.40;;;14.25;;
55493;SDS011;41355;50.390;19.096;2022-07-06T05:26:03;24.67;;;14.55;;
55493;SDS011;41355;50.390;19.096;2022-07-06T05:28:29;22.58;;;14.45;;
55493;SDS011;41355;50.390;19.096;2022-07-06T05:30:55;19.90;;;13.07;;
55493;SDS011;41355;50.390;19.096;2022-07-06T05:33:21;20.88;;;13.68;;
55493;SDS011;41355;50.390;19.096;2022-07-06T05:35:47;25.60;;;13.18;;
55493;SDS011;41355;50.390;19.096;2022-07-06T05:38:13;18.63;;;12.77;;
55493;SDS011;41355;50.390;19.096;2022-07-06T05:40:39;22.38;;;14.00;;
55493;SDS011;41355;50.390;19.096;2022-07-06T05:43:05;21.65;;;13.90;;
55493;SDS011;41355;50.390;19.096;2022-07-06T05:45:31;22.65;;;14.05;;
55493;SDS011;41355;50.390;19.096;2022-07-06T05:47:57;26.63;;;16.85;;
55493;SDS011;41355;50.390;19.096;2022-07-06T05:50:42;22.25;;;15.50;;
55493;SDS011;41355;50.390;19.096;2022-07-06T05:53:08;22.00;;;14.05;;
55493;SDS011;41355;50.390;19.096;2022-07-06T05:55:34;21.00;;;14.75;;
55493;SDS011;41355;50.390;19.096;2022-07-06T05:58:00;25.52;;;16.38;;
55493;SDS011;41355;50.390;19.096;2022-07-06T06:00:26;22.42;;;14.35;;
55493;SDS011;41355;50.390;19.096;2022-07-06T06:02:53;24.05;;;13.82;;
55493;SDS011;41355;50.390;19.096;2022-07-06T06:05:19;19.95;;;12.52;;
55493;SDS011;41355;50.390;19.096;2022-07-06T06:07:45;18.90;;;12.57;;
55493;SDS011;41355;50.390;19.096;2022-07-06T06:10:13;16.52;;;11.68;;
55493;SDS011;41355;50.390;19.096;2022-07-06T06:12:39;19.42;;;13.55;;
55493;SDS011;41355;50.390;19.096;2022-07-06T06:15:06;21.95;;;14.27;;
55493;SDS011;41355;50.390;19.096;2022-07-06T06:17:32;18.73;;;13.23;;
55493;SDS011;41355;50.390;19.096;2022-07-06T06:19:58;19.63;;;13.20;;
55493;SDS011;41355;50.390;19.096;2022-07-06T06:22:24;17.63;;;12.38;;
55493;SDS011;41355;50.390;19.096;2022-07-06T06:24:51;18.58;;;12.25;;
55493;SDS011;41355;50.390;19.096;2022-07-06T06:27:17;20.70;;;13.07;;
55493;SDS011;41355;50.390;19.096;2022-07-06T06:29:43;17.17;;;12.15;;
55493;SDS011;41355;50.390;19.096;2022-07-06T06:32:12;16.55;;;11.23;;
55493;SDS011;41355;50.390;19.096;2022-07-06T06:34:40;21.05;;;14.85;;
55493;SDS011;41355;50.390;19.096;2022-07-06T06:37:06;25.08;;;15.95;;
55493;SDS011;41355;50.390;19.096;2022-07-06T06:39:32;28.48;;;17.45;;
55493;SDS011;41355;50.390;19.096;2022-07-06T06:41:58;26.85;;;18.55;;
55493;SDS011;41355;50.390;19.096;2022-07-06T06:44:24;24.73;;;16.75;;
55493;SDS011;41355;50.390;19.096;2022-07-06T06:46:50;24.58;;;17.38;;
55493;SDS011;41355;50.390;19.096;2022-07-06T06:49:19;25.45;;;17.80;;
55493;SDS011;41355;50.390;19.096;2022-07-06T06:51:45;20.05;;;14.07;;
55493;SDS011;41355;50.390;19.096;2022-07-06T06:54:11;19.10;;;14.20;;
55493;SDS011;41355;50.390;19.096;2022-07-06T06:56:37;18.65;;;13.27;;
55493;SDS011;41355;50.390;19.096;2022-07-06T06:59:03;18.13;;;12.48;;
55493;SDS011;41355;50.390;19.096;2022-07-06T07:01:29;20.00;;;12.85;;
55493;SDS011;41355;50.390;19.096;2022-07-06T07:03:55;20.23;;;13.55;;
55493;SDS011;41355;50.390;19.096;2022-07-06T07:06:21;23.77;;;15.18;;
55493;SDS011;41355;50.390;19.096;2022-07-06T07:08:48;24.20;;;15.38;;
55493;SDS011;41355;50.390;19.096;2022-07-06T07:11:14;24.42;;;15.43;;
55493;SDS011;41355;50.390;19.096;2022-07-06T07:13:40;27.25;;;16.15;;
55493;SDS011;41355;50.390;19.096;2022-07-06T07:16:06;20.65;;;14.27;;
55493;SDS011;41355;50.390;19.096;2022-07-06T07:18:32;24.75;;;16.67;;
55493;SDS011;41355;50.390;19.096;2022-07-06T07:20:58;26.50;;;16.33;;
55493;SDS011;41355;50.390;19.096;2022-07-06T07:23:24;30.55;;;18.70;;
55493;SDS011;41355;50.390;19.096;2022-07-06T07:25:50;25.52;;;16.42;;
55493;SDS011;41355;50.390;19.096;2022-07-06T07:28:16;26.60;;;16.63;;
55493;SDS011;41355;50.390;19.096;2022-07-06T07:30:42;22.35;;;17.00;;
55493;SDS011;41355;50.390;19.096;2022-07-06T07:33:08;20.10;;;15.13;;
55493;SDS011;41355;50.390;19.096;2022-07-06T07:35:34;24.63;;;15.70;;
55493;SDS011;41355;50.390;19.096;2022-07-06T07:38:00;21.45;;;15.80;;
55493;SDS011;41355;50.390;19.096;2022-07-06T07:40:26;22.80;;;15.98;;
55493;SDS011;41355;50.390;19.096;2022-07-06T07:42:52;21.05;;;16.55;;
55493;SDS011;41355;50.390;19.096;2022-07-06T07:45:18;22.90;;;17.60;;
55493;SDS011;41355;50.390;19.096;2022-07-06T07:47:44;28.25;;;19.25;;
55493;SDS011;41355;50.390;19.096;2022-07-06T07:50:10;24.73;;;19.65;;
55493;SDS011;41355;50.390;19.096;2022-07-06T07:52:37;27.85;;;18.23;;
55493;SDS011;41355;50.390;19.096;2022-07-06T07:55:04;22.87;;;15.73;;
55493;SDS011;41355;50.390;19.096;2022-07-06T07:57:30;24.10;;;16.23;;
55493;SDS011;41355;50.390;19.096;2022-07-06T07:59:56;17.42;;;14.13;;
55493;SDS011;41355;50.390;19.096;2022-07-06T08:02:22;20.08;;;14.57;;
55493;SDS011;41355;50.390;19.096;2022-07-06T08:04:48;19.42;;;14.80;;
55493;SDS011;41355;50.390;19.096;2022-07-06T08:07:14;23.55;;;18.42;;
55493;SDS011;41355;50.390;19.096;2022-07-06T08:09:40;13.65;;;10.63;;
55493;SDS011;41355;50.390;19.096;2022-07-06T08:12:06;17.40;;;10.75;;
55493;SDS011;41355;50.390;19.096;2022-07-06T08:14:32;11.20;;;8.85;;
55493;SDS011;41355;50.390;19.096;2022-07-06T08:16:59;15.02;;;9.93;;
55493;SDS011;41355;50.390;19.096;2022-07-06T08:19:25;12.00;;;7.45;;
55493;SDS011;41355;50.390;19.096;2022-07-06T08:21:51;10.93;;;6.20;;
55493;SDS011;41355;50.390;19.096;2022-07-06T08:24:17;10.27;;;6.35;;
55493;SDS011;41355;50.390;19.096;2022-07-06T08:26:43;8.77;;;5.68;;
55493;SDS011;41355;50.390;19.096;2022-07-06T08:29:09;11.07;;;5.40;;
55493;SDS011;41355;50.390;19.096;2022-07-06T08:31:35;9.27;;;4.97;;
55493;SDS011;41355;50.390;19.096;2022-07-06T08:34:01;7.32;;;4.95;;
55493;SDS011;41355;50.390;19.096;2022-07-06T08:36:28;6.63;;;4.70;;
55493;SDS011;41355;50.390;19.096;2022-07-06T08:38:54;6.15;;;4.65;;
55493;SDS011;41355;50.390;19.096;2022-07-06T08:41:21;6.88;;;4.93;;
55493;SDS011;41355;50.390;19.096;2022-07-06T08:43:47;7.95;;;4.95;;
55493;SDS011;41355;50.390;19.096;2022-07-06T08:46:13;7.05;;;4.60;;
55493;SDS011;41355;50.390;19.096;2022-07-06T08:48:40;6.13;;;4.25;;
55493;SDS011;41355;50.390;19.096;2022-07-06T08:51:06;6.30;;;4.28;;
55493;SDS011;41355;50.390;19.096;2022-07-06T08:53:32;7.35;;;4.38;;
55493;SDS011;41355;50.390;19.096;2022-07-06T08:55:58;6.40;;;4.13;;
55493;SDS011;41355;50.390;19.096;2022-07-06T08:58:25;8.10;;;4.32;;
55493;SDS011;41355;50.390;19.096;2022-07-06T09:00:56;7.43;;;4.45;;
55493;SDS011;41355;50.390;19.096;2022-07-06T09:03:22;8.85;;;4.32;;
55493;SDS011;41355;50.390;19.096;2022-07-06T09:05:49;9.18;;;4.50;;
55493;SDS011;41355;50.390;19.096;2022-07-06T09:08:15;7.95;;;4.47;;
55493;SDS011;41355;50.390;19.096;2022-07-06T09:10:42;8.52;;;4.78;;
55493;SDS011;41355;50.390;19.096;2022-07-06T09:13:08;7.40;;;4.50;;
55493;SDS011;41355;50.390;19.096;2022-07-06T09:15:35;10.13;;;4.22;;
55493;SDS011;41355;50.390;19.096;2022-07-06T09:18:04;7.82;;;4.65;;
55493;SDS011;41355;50.390;19.096;2022-07-06T09:20:30;8.65;;;4.85;;
55493;SDS011;41355;50.390;19.096;2022-07-06T09:22:57;7.57;;;4.20;;
55493;SDS011;41355;50.390;19.096;2022-07-06T09:25:24;8.52;;;4.43;;
55493;SDS011;41355;50.390;19.096;2022-07-06T09:27:50;11.20;;;4.22;;
55493;SDS011;41355;50.390;19.096;2022-07-06T09:30:19;9.15;;;4.95;;
55493;SDS011;41355;50.390;19.096;2022-07-06T09:32:46;7.82;;;4.15;;
55493;SDS011;41355;50.390;19.096;2022-07-06T09:37:59;7.03;;;4.10;;
55493;SDS011;41355;50.390;19.096;2022-07-06T09:40:26;7.47;;;4.10;;
55493;SDS011;41355;50.390;19.096;2022-07-06T09:43:06;7.75;;;3.95;;
55493;SDS011;41355;50.390;19.096;2022-07-06T09:45:33;6.72;;;3.72;;
55493;SDS011;41355;50.390;19.096;2022-07-06T09:48:05;7.13;;;3.55;;
55493;SDS011;41355;50.390;19.096;2022-07-06T09:50:37;7.20;;;3.60;;
55493;SDS011;41355;50.390;19.096;2022-07-06T09:53:04;6.40;;;3.50;;
55493;SDS011;41355;50.390;19.096;2022-07-06T09:55:30;7.18;;;3.60;;
55493;SDS011;41355;50.390;19.096;2022-07-06T09:57:56;7.13;;;3.75;;
55493;SDS011;41355;50.390;19.096;2022-07-06T10:00:22;7.47;;;3.38;;
55493;SDS011;41355;50.390;19.096;2022-07-06T10:02:47;5.78;;;3.00;;
55493;SDS011;41355;50.390;19.096;2022-07-06T10:05:17;5.35;;;2.63;;
55493;SDS011;41355;50.390;19.096;2022-07-06T10:07:46;4.40;;;2.38;;
55493;SDS011;41355;50.390;19.096;2022-07-06T10:10:13;4.30;;;2.40;;
55493;SDS011;41355;50.390;19.096;2022-07-06T10:12:40;6.15;;;2.55;;
55493;SDS011;41355;50.390;19.096;2022-07-06T10:15:07;5.05;;;2.30;;
55493;SDS011;41355;50.390;19.096;2022-07-06T10:17:34;4.43;;;2.50;;
55493;SDS011;41355;50.390;19.096;2022-07-06T10:20:00;5.20;;;2.63;;
55493;SDS011;41355;50.390;19.096;2022-07-06T10:22:27;5.05;;;2.47;;
55493;SDS011;41355;50.390;19.096;2022-07-06T10:24:53;5.65;;;2.67;;
55493;SDS011;41355;50.390;19.096;2022-07-06T10:27:20;7.30;;;3.47;;
55493;SDS011;41355;50.390;19.096;2022-07-06T10:29:47;7.68;;;3.33;;
55493;SDS011;41355;50.390;19.096;2022-07-06T10:32:13;6.25;;;3.00;;
55493;SDS011;41355;50.390;19.096;2022-07-06T10:34:44;7.68;;;3.05;;
55493;SDS011;41355;50.390;19.096;2022-07-06T10:37:19;6.70;;;2.70;;
55493;SDS011;41355;50.390;19.096;2022-07-06T10:39:47;3.35;;;2.03;;
55493;SDS011;41355;50.390;19.096;2022-07-06T10:45:04;5.32;;;2.28;;
55493;SDS011;41355;50.390;19.096;2022-07-06T10:47:30;5.28;;;2.10;;
55493;SDS011;41355;50.390;19.096;2022-07-06T10:49:59;4.57;;;1.90;;
55493;SDS011;41355;50.390;19.096;2022-07-06T10:58:05;4.22;;;1.98;;
55493;SDS011;41355;50.390;19.096;2022-07-06T11:00:50;4.47;;;2.10;;
55493;SDS011;41355;50.390;19.096;2022-07-06T11:03:50;5.05;;;2.33;;
55493;SDS011;41355;50.390;19.096;2022-07-06T11:06:18;4.55;;;2.40;;
55493;SDS011;41355;50.390;19.096;2022-07-06T11:08:54;3.83;;;2.00;;
55493;SDS011;41355;50.390;19.096;2022-07-06T11:11:22;4.90;;;2.10;;
55493;SDS011;41355;50.390;19.096;2022-07-06T11:13:49;4.57;;;2.08;;
55493;SDS011;41355;50.390;19.096;2022-07-06T11:16:18;4.13;;;2.30;;
55493;SDS011;41355;50.390;19.096;2022-07-06T11:18:46;6.68;;;2.20;;
55493;SDS011;41355;50.390;19.096;2022-07-06T11:21:16;3.88;;;2.08;;
55493;SDS011;41355;50.390;19.096;2022-07-06T11:23:42;7.47;;;2.38;;
55493;SDS011;41355;50.390;19.096;2022-07-06T11:26:10;4.60;;;2.08;;
55493;SDS011;41355;50.390;19.096;2022-07-06T11:28:36;4.88;;;2.05;;
55493;SDS011;41355;50.390;19.096;2022-07-06T11:31:03;6.60;;;2.22;;
55493;SDS011;41355;50.390;19.096;2022-07-06T11:33:32;11.63;;;3.63;;
55493;SDS011;41355;50.390;19.096;2022-07-06T11:39:03;9.32;;;3.28;;
55493;SDS011;41355;50.390;19.096;2022-07-06T11:41:30;7.85;;;2.85;;
55493;SDS011;41355;50.390;19.096;2022-07-06T11:43:56;10.18;;;4.07;;
55493;SDS011;41355;50.390;19.096;2022-07-06T11:48:49;6.65;;;2.65;;
55493;SDS011;41355;50.390;19.096;2022-07-06T11:51:15;5.20;;;2.30;;
55493;SDS011;41355;50.390;19.096;2022-07-06T11:53:42;5.28;;;2.38;;
55493;SDS011;41355;50.390;19.096;2022-07-06T11:56:08;3.65;;;2.08;;
55493;SDS011;41355;50.390;19.096;2022-07-06T11:58:35;7.20;;;2.40;;
55493;SDS011;41355;50.390;19.096;2022-07-06T12:03:30;6.57;;;2.35;;
55493;SDS011;41355;50.390;19.096;2022-07-06T12:05:57;4.38;;;1.92;;
55493;SDS011;41355;50.390;19.096;2022-07-06T12:08:23;3.75;;;2.00;;
55493;SDS011;41355;50.390;19.096;2022-07-06T12:10:49;3.70;;;1.77;;
55493;SDS011;41355;50.390;19.096;2022-07-06T12:13:15;3.20;;;1.75;;
55493;SDS011;41355;50.390;19.096;2022-07-06T12:15:41;4.53;;;1.90;;
55493;SDS011;41355;50.390;19.096;2022-07-06T12:18:07;3.65;;;1.65;;
55493;SDS011;41355;50.390;19.096;2022-07-06T12:20:33;4.72;;;2.20;;
55493;SDS011;41355;50.390;19.096;2022-07-06T12:23:03;4.47;;;1.67;;
55493;SDS011;41355;50.390;19.096;2022-07-06T12:25:30;4.63;;;1.60;;
55493;SDS011;41355;50.390;19.096;2022-07-06T12:27:56;7.30;;;3.10;;
55493;SDS011;41355;50.390;19.096;2022-07-06T12:30:23;5.22;;;2.42;;
55493;SDS011;41355;50.390;19.096;2022-07-06T12:35:34;3.38;;;1.80;;
55493;SDS011;41355;50.390;19.096;2022-07-06T12:37:59;4.15;;;1.90;;
55493;SDS011;41355;50.390;19.096;2022-07-06T12:40:26;4.13;;;1.70;;
55493;SDS011;41355;50.390;19.096;2022-07-06T12:42:53;3.17;;;1.80;;
55493;SDS011;41355;50.390;19.096;2022-07-06T12:45:19;4.20;;;1.88;;
55493;SDS011;41355;50.390;19.096;2022-07-06T12:50:38;4.38;;;1.70;;
55493;SDS011;41355;50.390;19.096;2022-07-06T12:53:05;5.18;;;1.48;;
55493;SDS011;41355;50.390;19.096;2022-07-06T12:55:37;3.42;;;1.60;;
55493;SDS011;41355;50.390;19.096;2022-07-06T12:58:03;5.38;;;1.50;;
55493;SDS011;41355;50.390;19.096;2022-07-06T13:00:29;2.90;;;1.50;;
55493;SDS011;41355;50.390;19.096;2022-07-06T13:03:10;3.80;;;1.83;;
55493;SDS011;41355;50.390;19.096;2022-07-06T13:05:36;3.15;;;1.52;;
55493;SDS011;41355;50.390;19.096;2022-07-06T13:08:03;3.83;;;1.30;;
55493;SDS011;41355;50.390;19.096;2022-07-06T13:10:29;2.97;;;1.55;;
55493;SDS011;41355;50.390;19.096;2022-07-06T13:12:55;2.95;;;1.40;;
55493;SDS011;41355;50.390;19.096;2022-07-06T13:15:21;2.28;;;1.30;;
55493;SDS011;41355;50.390;19.096;2022-07-06T13:17:47;3.55;;;1.50;;
55493;SDS011;41355;50.390;19.096;2022-07-06T13:20:13;3.70;;;2.10;;
55493;SDS011;41355;50.390;19.096;2022-07-06T13:22:42;6.13;;;4.35;;
55493;SDS011;41355;50.390;19.096;2022-07-06T13:25:08;3.38;;;1.95;;
55493;SDS011;41355;50.390;19.096;2022-07-06T13:27:34;2.83;;;1.50;;
55493;SDS011;41355;50.390;19.096;2022-07-06T13:30:00;3.42;;;1.40;;
55493;SDS011;41355;50.390;19.096;2022-07-06T13:32:26;2.15;;;1.20;;
55493;SDS011;41355;50.390;19.096;2022-07-06T13:34:52;3.67;;;1.50;;
55493;SDS011;41355;50.390;19.096;2022-07-06T13:37:18;3.80;;;1.20;;
55493;SDS011;41355;50.390;19.096;2022-07-06T13:39:45;3.58;;;1.88;;
55493;SDS011;41355;50.390;19.096;2022-07-06T13:42:11;2.13;;;1.08;;
55493;SDS011;41355;50.390;19.096;2022-07-06T13:44:37;3.90;;;1.50;;
55493;SDS011;41355;50.390;19.096;2022-07-06T13:47:03;2.92;;;1.05;;
55493;SDS011;41355;50.390;19.096;2022-07-06T13:49:29;9.35;;;3.83;;
55493;SDS011;41355;50.390;19.096;2022-07-06T13:51:55;4.32;;;1.52;;
55493;SDS011;41355;50.390;19.096;2022-07-06T13:54:28;2.55;;;1.30;;
55493;SDS011;41355;50.390;19.096;2022-07-06T13:56:54;4.93;;;1.60;;
55493;SDS011;41355;50.390;19.096;2022-07-06T13:59:20;2.90;;;1.20;;
55493;SDS011;41355;50.390;19.096;2022-07-06T14:01:46;2.00;;;0.95;;
55493;SDS011;41355;50.390;19.096;2022-07-06T14:04:11;5.40;;;1.88;;
55493;SDS011;41355;50.390;19.096;2022-07-06T14:06:37;6.30;;;2.53;;
55493;SDS011;41355;50.390;19.096;2022-07-06T14:09:03;6.03;;;2.42;;
55493;SDS011;41355;50.390;19.096;2022-07-06T14:11:30;2.05;;;1.00;;
55493;SDS011;41355;50.390;19.096;2022-07-06T14:13:56;3.05;;;1.40;;
55493;SDS011;41355;50.390;19.096;2022-07-06T14:16:22;3.58;;;1.30;;
55493;SDS011;41355;50.390;19.096;2022-07-06T14:18:48;3.45;;;1.40;;
55493;SDS011;41355;50.390;19.096;2022-07-06T14:21:14;7.38;;;3.38;;
55493;SDS011;41355;50.390;19.096;2022-07-06T14:23:40;1.92;;;1.10;;
55493;SDS011;41355;50.390;19.096;2022-07-06T14:26:06;2.33;;;1.00;;
55493;SDS011;41355;50.390;19.096;2022-07-06T14:28:32;5.45;;;2.20;;
55493;SDS011;41355;50.390;19.096;2022-07-06T14:30:58;4.78;;;1.95;;
55493;SDS011;41355;50.390;19.096;2022-07-06T14:33:26;4.18;;;1.60;;
55493;SDS011;41355;50.390;19.096;2022-07-06T14:35:52;2.28;;;1.10;;
55493;SDS011;41355;50.390;19.096;2022-07-06T14:38:19;7.15;;;2.45;;
55493;SDS011;41355;50.390;19.096;2022-07-06T14:40:45;2.08;;;1.17;;